createdAt,value
2018-09-26T00:00:31.666Z,7.65
2018-09-26T00:03:03.439Z,7.50
2018-09-26T00:05:31.824Z,7.58
2018-09-26T00:08:00.163Z,7.80
2018-09-26T00:10:28.942Z,7.60
2018-09-26T00:12:57.252Z,7.30
2018-09-26T00:15:25.630Z,7.50
2018-09-26T00:17:54.006Z,7.50
2018-09-26T00:20:22.361Z,7.20
2018-09-26T00:22:50.905Z,7.00
2018-09-26T00:25:19.308Z,7.47
2018-09-26T00:27:47.667Z,7.08
2018-09-26T00:30:16.075Z,6.80
2018-09-26T00:32:44.625Z,7.00
2018-09-26T00:35:12.989Z,7.60
2018-09-26T00:37:41.351Z,7.20
2018-09-26T00:40:09.742Z,7.30
2018-09-26T00:42:38.063Z,6.80
2018-09-26T00:45:06.408Z,6.90
2018-09-26T00:47:34.958Z,6.50
2018-09-26T00:50:03.297Z,7.03
2018-09-26T00:52:31.673Z,7.50
2018-09-26T00:55:00.041Z,7.10
2018-09-26T00:57:28.421Z,7.20
2018-09-26T00:59:56.809Z,6.70
2018-09-26T01:02:25.164Z,6.67
2018-09-26T01:04:53.528Z,7.10
2018-09-26T01:07:21.928Z,7.00
2018-09-26T01:09:50.310Z,6.67
2018-09-26T01:12:18.735Z,7.50
2018-09-26T01:14:47.269Z,7.20
2018-09-26T01:17:15.825Z,7.07
2018-09-26T01:19:44.305Z,6.85
2018-09-26T01:22:12.689Z,6.62
2018-09-26T01:24:41.187Z,6.80
2018-09-26T01:27:09.634Z,6.75
2018-09-26T01:29:38.016Z,7.22
2018-09-26T01:32:06.398Z,7.30
2018-09-26T01:34:34.793Z,7.10
2018-09-26T01:37:03.255Z,6.00
2018-09-26T01:39:31.610Z,8.10
2018-09-26T01:42:00.022Z,6.53
2018-09-26T01:44:28.359Z,6.70
2018-09-26T01:46:56.721Z,6.47
2018-09-26T01:49:25.213Z,6.33
2018-09-26T01:51:53.638Z,6.40
2018-09-26T01:54:22.034Z,6.65
2018-09-26T01:56:50.414Z,6.80
2018-09-26T01:59:18.775Z,6.42
2018-09-26T02:01:47.142Z,6.17
2018-09-26T02:04:15.486Z,6.70
2018-09-26T02:06:43.838Z,6.58
2018-09-26T02:09:13.024Z,9.45
2018-09-26T02:11:41.409Z,12.03
2018-09-26T02:14:09.766Z,10.53
2018-09-26T02:16:38.112Z,10.87
2018-09-26T02:19:06.757Z,10.80
2018-09-26T02:21:35.129Z,9.55
2018-09-26T02:24:03.464Z,8.47
2018-09-26T02:26:31.835Z,7.70
2018-09-26T02:29:00.228Z,7.70
2018-09-26T02:31:28.628Z,7.20
2018-09-26T02:33:56.961Z,6.90
2018-09-26T02:36:25.346Z,6.87
2018-09-26T02:38:54.121Z,5.92
2018-09-26T02:41:22.426Z,6.35
2018-09-26T02:43:50.759Z,6.22
2018-09-26T02:46:19.105Z,6.00
2018-09-26T02:48:52.817Z,6.37
2018-09-26T02:51:21.401Z,5.60
2018-09-26T02:53:49.736Z,6.30
2018-09-26T02:56:18.053Z,6.10
2018-09-26T02:58:46.445Z,5.70
2018-09-26T03:01:14.813Z,5.65
2018-09-26T03:03:43.249Z,5.90
2018-09-26T03:06:11.598Z,5.92
2018-09-26T03:08:40.055Z,5.60
2018-09-26T03:11:08.510Z,6.03
2018-09-26T03:13:36.883Z,5.45
2018-09-26T03:16:06.152Z,5.30
2018-09-26T03:18:34.491Z,5.72
2018-09-26T03:21:02.987Z,5.22
2018-09-26T03:23:31.345Z,5.20
2018-09-26T03:25:59.817Z,5.00
2018-09-26T03:28:28.179Z,5.05
2018-09-26T03:30:56.597Z,4.70
2018-09-26T03:33:24.946Z,4.92
2018-09-26T03:35:54.750Z,5.30
2018-09-26T03:38:23.074Z,4.90
2018-09-26T03:40:51.506Z,5.50
2018-09-26T03:43:19.992Z,4.90
2018-09-26T03:45:48.380Z,5.00
2018-09-26T03:48:16.746Z,4.55
2018-09-26T03:50:45.088Z,5.20
2018-09-26T03:53:14.631Z,5.10
2018-09-26T03:55:42.984Z,6.03
2018-09-26T03:58:11.337Z,4.70
2018-09-26T04:00:39.685Z,6.17
2018-09-26T04:03:08.081Z,5.80
2018-09-26T04:05:36.445Z,9.45
2018-09-26T04:08:04.911Z,7.62
2018-09-26T04:10:33.263Z,7.72
2018-09-26T04:13:01.676Z,9.58
2018-09-26T04:15:30.148Z,8.57
2018-09-26T04:17:58.537Z,7.65
2018-09-26T04:20:26.968Z,6.83
2018-09-26T04:22:55.268Z,6.85
2018-09-26T04:25:23.647Z,6.75
2018-09-26T04:27:52.015Z,6.10
2018-09-26T04:30:20.471Z,5.60
2018-09-26T04:32:48.939Z,6.00
2018-09-26T04:35:17.219Z,6.00
2018-09-26T04:37:45.547Z,5.45
2018-09-26T04:40:13.963Z,4.92
2018-09-26T04:42:42.498Z,4.70
2018-09-26T04:45:10.871Z,4.10
2018-09-26T04:47:39.202Z,4.30
2018-09-26T04:50:07.538Z,4.10
2018-09-26T04:52:35.895Z,4.70
2018-09-26T04:55:04.413Z,3.98
2018-09-26T04:57:32.772Z,4.25
2018-09-26T05:00:01.244Z,4.55
2018-09-26T05:02:29.724Z,4.67
2018-09-26T05:04:58.223Z,4.80
2018-09-26T05:07:26.582Z,5.20
2018-09-26T05:09:54.879Z,4.80
2018-09-26T05:12:24.336Z,4.90
2018-09-26T05:14:54.102Z,4.75
2018-09-26T05:17:22.485Z,4.70
2018-09-26T05:19:50.917Z,5.30
2018-09-26T05:22:19.274Z,5.00
2018-09-26T05:24:47.707Z,4.90
2018-09-26T05:27:16.063Z,4.90
2018-09-26T05:29:44.419Z,5.05
2018-09-26T05:32:12.821Z,5.00
2018-09-26T05:34:41.175Z,5.20
2018-09-26T05:37:09.951Z,5.10
2018-09-26T05:39:38.354Z,5.70
2018-09-26T05:42:06.765Z,5.50
2018-09-26T05:44:35.140Z,5.75
2018-09-26T05:47:03.474Z,5.33
2018-09-26T05:49:31.909Z,5.30
2018-09-26T05:52:00.240Z,5.20
2018-09-26T05:54:28.577Z,5.40
2018-09-26T05:56:56.917Z,5.60
2018-09-26T05:59:25.301Z,5.83
2018-09-26T06:01:53.818Z,5.85
2018-09-26T06:04:22.224Z,6.30
2018-09-26T06:06:50.617Z,7.50
2018-09-26T06:09:18.961Z,7.90
2018-09-26T06:11:47.276Z,8.60
2018-09-26T06:14:15.645Z,9.80
2018-09-26T06:16:44.085Z,8.50
2018-09-26T06:19:12.515Z,7.78
2018-09-26T06:21:40.855Z,6.37
2018-09-26T06:24:09.210Z,6.15
2018-09-26T06:26:37.720Z,5.12
2018-09-26T06:29:06.259Z,4.90
2018-09-26T06:31:34.951Z,4.95
2018-09-26T06:34:03.411Z,5.20
2018-09-26T06:36:31.800Z,4.80
2018-09-26T06:39:00.159Z,4.30
2018-09-26T06:41:28.579Z,4.47
2018-09-26T06:43:56.898Z,4.20
2018-09-26T06:46:25.266Z,4.47
2018-09-26T06:48:53.624Z,4.67
2018-09-26T06:51:21.957Z,4.95
2018-09-26T06:53:50.253Z,4.95
2018-09-26T06:56:18.702Z,5.58
2018-09-26T06:58:47.071Z,4.25
2018-09-26T07:01:15.440Z,4.50
2018-09-26T07:03:43.807Z,4.50
2018-09-26T07:06:12.166Z,5.00
2018-09-26T07:08:40.629Z,4.50
2018-09-26T07:11:08.998Z,5.25
2018-09-26T07:13:37.329Z,4.83
2018-09-26T07:16:05.693Z,5.20
2018-09-26T07:18:34.063Z,5.78
2018-09-26T07:21:02.391Z,5.70
2018-09-26T07:23:30.737Z,5.47
2018-09-26T07:25:59.082Z,5.90
2018-09-26T07:28:27.460Z,6.47
2018-09-26T07:30:55.816Z,8.48
2018-09-26T07:33:24.143Z,8.98
2018-09-26T07:35:52.569Z,9.15
2018-09-26T07:38:20.979Z,7.25
2018-09-26T07:40:49.327Z,7.40
2018-09-26T07:43:17.671Z,7.60
2018-09-26T07:45:46.099Z,7.35
2018-09-26T07:48:14.434Z,6.15
2018-09-26T07:50:42.831Z,4.87
2018-09-26T07:53:11.257Z,4.10
2018-09-26T07:55:39.578Z,3.70
2018-09-26T07:58:07.924Z,3.92
2018-09-26T08:00:36.296Z,3.02
2018-09-26T08:03:04.658Z,3.03
2018-09-26T08:05:33.091Z,2.70
2018-09-26T08:08:01.456Z,2.00
2018-09-26T08:10:29.816Z,2.30
2018-09-26T08:12:58.171Z,2.00
2018-09-26T08:15:26.491Z,2.10
2018-09-26T08:17:54.847Z,1.77
2018-09-26T08:20:23.275Z,1.97
2018-09-26T08:22:51.636Z,2.08
2018-09-26T08:25:20.159Z,2.00
2018-09-26T08:27:48.545Z,2.10
2018-09-26T08:30:16.883Z,2.23
2018-09-26T08:32:45.245Z,2.23
2018-09-26T08:35:13.615Z,2.27
2018-09-26T08:37:41.984Z,2.45
2018-09-26T08:40:10.355Z,2.40
2018-09-26T08:42:38.991Z,2.37
2018-09-26T08:45:07.995Z,2.40
2018-09-26T08:47:36.429Z,2.20
2018-09-26T08:50:05.093Z,2.20
2018-09-26T08:52:33.432Z,2.10
2018-09-26T08:55:01.812Z,1.77
2018-09-26T08:57:30.149Z,2.27
2018-09-26T08:59:58.736Z,2.05
2018-09-26T09:02:27.051Z,2.47
2018-09-26T09:04:55.417Z,1.95
2018-09-26T09:07:23.749Z,1.57
2018-09-26T09:09:52.104Z,2.10
2018-09-26T09:12:20.433Z,2.08
2018-09-26T09:14:49.052Z,2.35
2018-09-26T09:17:17.187Z,1.70
2018-09-26T09:19:45.494Z,1.53
2018-09-26T09:22:13.849Z,1.97
2018-09-26T09:24:42.232Z,1.62
2018-09-26T09:27:10.629Z,1.60
2018-09-26T09:29:38.977Z,1.62
2018-09-26T09:32:07.539Z,1.98
2018-09-26T09:34:35.914Z,1.75
2018-09-26T09:37:04.249Z,1.87
2018-09-26T09:39:32.577Z,1.90
2018-09-26T09:42:01.001Z,1.40
2018-09-26T09:44:29.436Z,1.60
2018-09-26T09:46:57.767Z,1.90
2018-09-26T09:49:26.216Z,1.72
2018-09-26T09:51:54.653Z,1.90
2018-09-26T09:54:22.981Z,2.00
2018-09-26T09:56:51.369Z,1.40
2018-09-26T09:59:19.706Z,1.80
2018-09-26T10:01:48.137Z,1.60
2018-09-26T10:04:16.525Z,1.50
2018-09-26T10:06:44.855Z,1.70
2018-09-26T10:09:13.217Z,1.55
2018-09-26T10:11:41.589Z,1.70
2018-09-26T10:14:10.787Z,1.70
2018-09-26T10:16:39.166Z,1.60
2018-09-26T10:19:07.518Z,1.50
2018-09-26T10:21:36.998Z,1.60
2018-09-26T10:24:05.369Z,1.82
2018-09-26T10:26:33.736Z,2.00
2018-09-26T10:29:02.127Z,1.72
2018-09-26T10:31:31.696Z,1.50
2018-09-26T10:34:00.039Z,1.50
2018-09-26T10:36:28.361Z,1.30
2018-09-26T10:38:56.721Z,1.90
2018-09-26T10:41:25.086Z,1.70
2018-09-26T10:43:53.571Z,1.50
2018-09-26T10:46:21.930Z,1.65
2018-09-26T10:48:50.240Z,1.70
2018-09-26T10:51:18.587Z,1.50
2018-09-26T10:53:46.922Z,1.60
2018-09-26T10:56:15.310Z,1.60
2018-09-26T10:58:43.624Z,1.23
2018-09-26T11:01:11.977Z,1.50
2018-09-26T11:03:40.287Z,1.63
2018-09-26T11:06:08.648Z,1.50
2018-09-26T11:08:37.081Z,1.60
2018-09-26T11:11:05.554Z,1.50
2018-09-26T11:13:34.828Z,1.80
2018-09-26T11:16:03.158Z,1.90
2018-09-26T11:18:31.594Z,1.87
2018-09-26T11:21:00.149Z,1.60
2018-09-26T11:23:28.504Z,1.52
2018-09-26T11:25:57.038Z,1.90
2018-09-26T11:28:25.478Z,1.70
2018-09-26T11:30:53.815Z,1.80
2018-09-26T11:33:22.273Z,1.65
2018-09-26T11:35:50.726Z,1.90
2018-09-26T11:38:19.149Z,1.92
2018-09-26T11:40:47.841Z,1.80
2018-09-26T11:43:16.284Z,1.70
2018-09-26T11:45:44.613Z,2.00
2018-09-26T11:48:12.955Z,1.90
2018-09-26T11:50:41.345Z,1.40
2018-09-26T11:53:09.799Z,1.60
2018-09-26T11:55:38.121Z,1.70
2018-09-26T11:58:06.862Z,1.50
2018-09-26T12:00:35.232Z,1.40
2018-09-26T12:03:03.605Z,1.62
2018-09-26T12:05:31.996Z,1.80
2018-09-26T12:08:00.715Z,1.40
2018-09-26T12:10:29.093Z,1.73
2018-09-26T12:12:57.534Z,1.60
2018-09-26T12:15:25.860Z,1.55
2018-09-26T12:17:54.200Z,1.42
2018-09-26T12:20:22.557Z,1.70
2018-09-26T12:22:50.942Z,1.70
2018-09-26T12:25:19.286Z,1.57
2018-09-26T12:27:47.690Z,1.40
2018-09-26T12:30:16.121Z,1.70
2018-09-26T12:32:44.559Z,1.30
2018-09-26T12:35:12.887Z,1.60
2018-09-26T12:37:41.302Z,1.37
2018-09-26T12:40:10.160Z,1.30
2018-09-26T12:42:38.728Z,1.10
2018-09-26T12:45:07.181Z,1.60
2018-09-26T12:47:35.525Z,1.20
2018-09-26T12:50:04.234Z,1.60
2018-09-26T12:52:32.610Z,1.40
2018-09-26T12:55:00.986Z,1.50
2018-09-26T12:57:29.310Z,1.60
2018-09-26T12:59:57.694Z,3.30
2018-09-26T13:02:26.171Z,1.67
2018-09-26T13:04:54.400Z,1.30
2018-09-26T13:07:22.764Z,1.00
2018-09-26T13:09:51.118Z,1.37
2018-09-26T13:12:19.458Z,1.80
2018-09-26T13:14:47.812Z,1.40
2018-09-26T13:17:16.139Z,1.10
2018-09-26T13:19:44.548Z,1.10
2018-09-26T13:22:12.907Z,1.30
2018-09-26T13:24:41.237Z,1.32
2018-09-26T13:27:09.736Z,1.30
2018-09-26T13:29:38.123Z,1.15
2018-09-26T13:32:06.550Z,1.30
2018-09-26T13:34:34.992Z,1.20
2018-09-26T13:37:03.361Z,1.40
2018-09-26T13:39:31.888Z,1.23
2018-09-26T13:42:00.182Z,1.40
2018-09-26T13:44:28.513Z,1.25
2018-09-26T13:46:56.873Z,1.30
2018-09-26T13:49:25.228Z,1.30
2018-09-26T13:51:53.568Z,1.20
2018-09-26T13:54:21.941Z,1.70
2018-09-26T13:56:50.369Z,1.90
2018-09-26T13:59:18.738Z,1.40
2018-09-26T14:01:47.174Z,1.57
2018-09-26T14:04:15.539Z,1.75
2018-09-26T14:06:43.867Z,1.40
2018-09-26T14:09:12.217Z,1.40
2018-09-26T14:11:41.693Z,1.50
2018-09-26T14:14:10.166Z,1.70
2018-09-26T14:16:38.438Z,1.50
2018-09-26T14:19:06.996Z,1.60
2018-09-26T14:21:39.039Z,1.60
2018-09-26T14:24:07.776Z,1.67
2018-09-26T14:26:36.777Z,1.50
2018-09-26T14:29:05.171Z,1.70
2018-09-26T14:31:33.532Z,1.20
2018-09-26T14:34:01.881Z,1.50
2018-09-26T14:36:30.257Z,1.65
2018-09-26T14:38:58.977Z,1.30
2018-09-26T14:41:28.332Z,1.60
2018-09-26T14:43:57.062Z,1.95
2018-09-26T14:46:25.522Z,1.82
2018-09-26T14:48:53.916Z,1.30
2018-09-26T14:51:23.062Z,2.00
2018-09-26T14:53:51.393Z,1.60
2018-09-26T14:56:19.769Z,1.42
2018-09-26T14:58:48.139Z,1.83
2018-09-26T15:01:16.495Z,1.60
2018-09-26T15:03:44.876Z,1.60
2018-09-26T15:06:13.345Z,1.30
2018-09-26T15:08:42.013Z,1.60
2018-09-26T15:11:10.328Z,1.50
2018-09-26T15:13:38.665Z,2.00
2018-09-26T15:16:07.519Z,1.90
2018-09-26T15:18:35.894Z,1.70
2018-09-26T15:21:04.238Z,1.80
2018-09-26T15:23:32.626Z,1.67
2018-09-26T15:26:00.975Z,1.60
2018-09-26T15:28:29.398Z,1.80
2018-09-26T15:30:57.760Z,1.40
2018-09-26T15:33:26.080Z,1.85
2018-09-26T15:35:55.492Z,2.03
2018-09-26T15:38:24.001Z,2.50
2018-09-26T15:40:52.251Z,2.50
2018-09-26T15:43:20.608Z,1.80
2018-09-26T15:45:48.968Z,1.60
2018-09-26T15:48:17.366Z,2.20
2018-09-26T15:50:45.697Z,2.30
2018-09-26T15:53:14.036Z,2.40
2018-09-26T15:55:42.396Z,2.30
2018-09-26T15:58:10.764Z,2.22
2018-09-26T16:00:39.113Z,1.80
2018-09-26T16:03:07.507Z,2.13
2018-09-26T16:05:35.916Z,2.10
2018-09-26T16:08:04.399Z,1.80
2018-09-26T16:10:33.524Z,2.27
2018-09-26T16:13:01.875Z,1.98
2018-09-26T16:15:30.268Z,2.22
2018-09-26T16:17:58.664Z,1.90
2018-09-26T16:20:27.689Z,2.00
2018-09-26T16:22:56.025Z,2.00
2018-09-26T16:25:24.464Z,2.00
2018-09-26T16:27:52.781Z,2.00
2018-09-26T16:30:21.162Z,2.20
2018-09-26T16:32:49.588Z,2.10
2018-09-26T16:35:18.649Z,2.30
2018-09-26T16:37:47.008Z,2.50
2018-09-26T16:40:15.486Z,2.13
2018-09-26T16:42:43.909Z,2.70
2018-09-26T16:45:12.243Z,2.58
2018-09-26T16:47:40.659Z,2.33
2018-09-26T16:50:09.292Z,2.02
2018-09-26T16:52:37.545Z,2.40
2018-09-26T16:55:06.588Z,2.00
2018-09-26T16:57:34.945Z,2.55
2018-09-26T17:00:03.277Z,2.40
2018-09-26T17:02:32.759Z,2.45
2018-09-26T17:05:01.097Z,2.40
2018-09-26T17:07:29.518Z,2.20
2018-09-26T17:09:57.875Z,2.60
2018-09-26T17:12:26.221Z,2.10
2018-09-26T17:14:54.565Z,2.40
2018-09-26T17:17:22.887Z,1.95
2018-09-26T17:19:51.555Z,2.58
2018-09-26T17:22:19.863Z,2.40
2018-09-26T17:24:48.226Z,2.63
2018-09-26T17:27:16.558Z,2.20
2018-09-26T17:29:44.912Z,1.90
2018-09-26T17:32:13.293Z,2.05
2018-09-26T17:34:41.793Z,2.30
2018-09-26T17:37:10.105Z,2.42
2018-09-26T17:39:38.812Z,2.10
2018-09-26T17:42:07.212Z,2.00
2018-09-26T17:44:35.623Z,2.25
2018-09-26T17:47:04.023Z,2.00
2018-09-26T17:49:32.550Z,2.75
2018-09-26T17:52:00.912Z,2.00
2018-09-26T17:54:29.268Z,2.47
2018-09-26T17:56:57.626Z,2.50
2018-09-26T17:59:25.959Z,3.00
2018-09-26T18:01:54.341Z,11.65
2018-09-26T18:04:22.731Z,9.90
2018-09-26T18:06:51.075Z,18.00
2018-09-26T18:09:19.418Z,15.20
2018-09-26T18:11:47.743Z,9.97
2018-09-26T18:14:17.320Z,5.40
2018-09-26T18:16:45.682Z,8.38
2018-09-26T18:19:14.011Z,5.87
2018-09-26T18:21:42.718Z,7.35
2018-09-26T18:24:11.046Z,7.00
2018-09-26T18:26:39.356Z,5.47
2018-09-26T18:29:07.721Z,5.70
2018-09-26T18:31:36.095Z,4.50
2018-09-26T18:34:04.641Z,4.40
2018-09-26T18:36:32.977Z,4.90
2018-09-26T18:39:01.348Z,4.37
2018-09-26T18:41:29.956Z,3.77
2018-09-26T18:43:58.331Z,4.00
2018-09-26T18:46:26.721Z,4.00
2018-09-26T18:48:55.063Z,4.90
2018-09-26T18:51:23.403Z,4.95
2018-09-26T18:53:52.540Z,4.78
2018-09-26T18:56:20.866Z,4.10
2018-09-26T18:58:49.277Z,3.80
2018-09-26T19:01:17.638Z,3.30
2018-09-26T19:03:45.955Z,3.80
2018-09-26T19:06:14.524Z,3.33
2018-09-26T19:08:42.894Z,4.80
2018-09-26T19:11:11.274Z,4.30
2018-09-26T19:13:39.617Z,4.30
2018-09-26T19:16:08.015Z,4.40
2018-09-26T19:18:36.413Z,3.70
2018-09-26T19:21:04.860Z,3.70
2018-09-26T19:23:33.198Z,3.50
2018-09-26T19:26:01.604Z,3.40
2018-09-26T19:28:29.928Z,3.27
2018-09-26T19:30:58.294Z,3.40
2018-09-26T19:33:26.637Z,4.00
2018-09-26T19:35:55.604Z,3.30
2018-09-26T19:38:23.937Z,3.60
2018-09-26T19:40:52.256Z,3.80
2018-09-26T19:43:20.617Z,3.15
2018-09-26T19:45:48.989Z,3.70
2018-09-26T19:48:17.437Z,3.90
2018-09-26T19:50:45.770Z,4.10
2018-09-26T19:53:14.112Z,3.67
2018-09-26T19:55:42.517Z,3.85
2018-09-26T19:58:10.887Z,3.55
2018-09-26T20:00:39.280Z,3.87
2018-09-26T20:03:07.619Z,3.87
2018-09-26T20:05:36.052Z,3.92
2018-09-26T20:08:04.512Z,4.10
2018-09-26T20:10:32.839Z,4.50
2018-09-26T20:13:01.186Z,3.95
2018-09-26T20:15:29.599Z,3.40
2018-09-26T20:17:58.301Z,3.85
2018-09-26T20:20:26.650Z,3.90
2018-09-26T20:22:55.024Z,3.55
2018-09-26T20:25:23.356Z,4.00
2018-09-26T20:27:51.755Z,3.80
2018-09-26T20:30:20.149Z,4.20
2018-09-26T20:32:48.519Z,4.00
2018-09-26T20:35:16.929Z,3.87
2018-09-26T20:37:45.303Z,4.62
2018-09-26T20:40:13.617Z,4.22
2018-09-26T20:42:41.949Z,4.50
2018-09-26T20:45:10.291Z,4.00
2018-09-26T20:47:38.670Z,4.03
2018-09-26T20:50:07.120Z,3.85
2018-09-26T20:52:35.486Z,3.55
2018-09-26T20:55:03.952Z,3.90
2018-09-26T20:57:32.346Z,5.97
2018-09-26T21:00:00.706Z,6.78
2018-09-26T21:02:29.075Z,6.58
2018-09-26T21:04:57.471Z,6.20
2018-09-26T21:07:25.831Z,5.60
2018-09-26T21:09:54.279Z,5.60
2018-09-26T21:12:22.681Z,6.33
2018-09-26T21:14:51.040Z,7.08
2018-09-26T21:17:19.483Z,5.75
2018-09-26T21:19:47.811Z,5.62
2018-09-26T21:22:16.181Z,5.30
2018-09-26T21:24:44.961Z,4.60
2018-09-26T21:27:13.363Z,4.50
2018-09-26T21:29:41.696Z,4.62
2018-09-26T21:32:10.162Z,4.35
2018-09-26T21:34:38.476Z,4.37
2018-09-26T21:37:07.715Z,4.40
2018-09-26T21:39:36.092Z,4.60
2018-09-26T21:42:04.425Z,4.08
2018-09-26T21:44:32.844Z,4.85
2018-09-26T21:47:01.191Z,4.83
2018-09-26T21:49:29.566Z,5.28
2018-09-26T21:51:57.910Z,5.28
2018-09-26T21:54:26.283Z,5.03
2018-09-26T21:56:54.668Z,4.87
2018-09-26T21:59:23.010Z,4.90
2018-09-26T22:01:51.371Z,5.28
2018-09-26T22:04:19.738Z,5.20
2018-09-26T22:06:48.542Z,4.60
2018-09-26T22:09:17.829Z,4.25
2018-09-26T22:11:46.231Z,4.50
2018-09-26T22:14:14.609Z,4.35
2018-09-26T22:16:42.995Z,4.70
2018-09-26T22:19:11.488Z,4.33
2018-09-26T22:21:39.859Z,4.12
2018-09-26T22:24:08.419Z,3.90
2018-09-26T22:26:37.928Z,4.12
2018-09-26T22:29:06.333Z,3.92
2018-09-26T22:31:34.695Z,4.45
2018-09-26T22:34:03.043Z,3.80
2018-09-26T22:36:31.402Z,3.80
2018-09-26T22:38:59.866Z,4.17
2018-09-26T22:41:28.237Z,4.25
2018-09-26T22:43:56.710Z,4.00
2018-09-26T22:46:25.082Z,3.80
2018-09-26T22:48:53.462Z,4.00
2018-09-26T22:51:21.814Z,4.12
2018-09-26T22:53:50.177Z,3.92
2018-09-26T22:56:18.547Z,4.33
2018-09-26T22:58:46.907Z,3.65
2018-09-26T23:01:15.289Z,3.70
2018-09-26T23:03:43.624Z,4.00
2018-09-26T23:06:11.998Z,3.70
2018-09-26T23:08:40.359Z,3.60
2018-09-26T23:11:08.896Z,3.70
2018-09-26T23:13:37.354Z,3.40
2018-09-26T23:16:06.471Z,3.80
2018-09-26T23:18:34.833Z,3.80
2018-09-26T23:21:03.236Z,4.10
2018-09-26T23:23:31.820Z,3.92
2018-09-26T23:26:00.213Z,4.00
2018-09-26T23:28:28.610Z,4.50
2018-09-26T23:30:56.958Z,3.60
2018-09-26T23:33:25.405Z,3.40
2018-09-26T23:35:53.721Z,3.83
2018-09-26T23:38:22.129Z,3.50
2018-09-26T23:40:50.482Z,3.37
2018-09-26T23:43:18.853Z,3.30
2018-09-26T23:45:47.299Z,3.83
2018-09-26T23:48:15.645Z,3.40
2018-09-26T23:50:44.005Z,3.47
2018-09-26T23:53:12.417Z,3.83
2018-09-26T23:55:41.060Z,3.67
2018-09-26T23:58:09.409Z,3.50
